ETH55G ESSA-ENGM
Flight info
| Callsign | ETH55G |
|---|---|
| Flight time | 0h 41m |
| Altitude | 36000 |
| Route | ARS N623 IBGAX DCT EBURI N623 ESEBA |
| Aircraft | A35K/H-SDE2E3GHIJ3J4J5LM1ORWXY/LB1D1 |
Departure
| Time | 2026-05-06 18:50 |
|---|---|
| Airport | Stockholm-Arlanda Airport (ESSA) |
Arrival
| Time | 2026-05-06 19:31 |
|---|---|
| Airport | Oslo-Gardermoen International Airport (ENGM) |
| Time | Latitude | Longitude | Altitude | Speed | Heading |
|---|---|---|---|---|---|
| 2026-05-06 18:22 | 59.65476 | 17.93757 | 114 ft | 0 kts | 248° |
| 2026-05-06 18:39 | 59.65471 | 17.93733 | 114 ft | 0 kts | 248° |
| 2026-05-06 18:39 | 59.65480 | 17.93774 | 113 ft | 4 kts | 248° |
| 2026-05-06 18:39 | 59.65490 | 17.93821 | 113 ft | 3 kts | 248° |
| 2026-05-06 18:40 | 59.65491 | 17.93890 | 114 ft | 4 kts | 320° |
| 2026-05-06 18:40 | 59.65471 | 17.93914 | 114 ft | 5 kts | 341° |
| 2026-05-06 18:40 | 59.65447 | 17.93928 | 114 ft | 3 kts | 346° |
| 2026-05-06 18:40 | 59.65464 | 17.93914 | 114 ft | 4 kts | 346° |
| 2026-05-06 18:41 | 59.65469 | 17.93909 | 114 ft | 0 kts | 346° |
| 2026-05-06 18:45 | 59.65486 | 17.93901 | 114 ft | 5 kts | 348° |
| 2026-05-06 18:45 | 59.65534 | 17.93884 | 115 ft | 9 kts | 347° |
| 2026-05-06 18:45 | 59.65577 | 17.93851 | 115 ft | 11 kts | 322° |
| 2026-05-06 18:46 | 59.65575 | 17.93636 | 115 ft | 15 kts | 256° |
| 2026-05-06 18:46 | 59.65546 | 17.93411 | 115 ft | 19 kts | 255° |
| 2026-05-06 18:46 | 59.65510 | 17.93134 | 115 ft | 22 kts | 256° |
| 2026-05-06 18:46 | 59.65463 | 17.92831 | 115 ft | 20 kts | 248° |
| 2026-05-06 18:47 | 59.65436 | 17.92662 | 113 ft | 13 kts | 285° |
| 2026-05-06 18:47 | 59.65528 | 17.92535 | 111 ft | 20 kts | 340° |
| 2026-05-06 18:47 | 59.65678 | 17.92455 | 109 ft | 24 kts | 346° |
| 2026-05-06 18:47 | 59.65849 | 17.92452 | 112 ft | 26 kts | 10° |
| 2026-05-06 18:48 | 59.66031 | 17.92519 | 113 ft | 27 kts | 11° |
| 2026-05-06 18:48 | 59.66223 | 17.92590 | 118 ft | 28 kts | 11° |
| 2026-05-06 18:48 | 59.66410 | 17.92653 | 126 ft | 24 kts | 4° |
| 2026-05-06 18:48 | 59.66510 | 17.92623 | 126 ft | 4 kts | 342° |
| 2026-05-06 18:49 | 59.66536 | 17.92606 | 128 ft | 5 kts | 341° |
| 2026-05-06 18:49 | 59.66580 | 17.92568 | 128 ft | 9 kts | 332° |
| 2026-05-06 18:49 | 59.66620 | 17.92463 | 128 ft | 11 kts | 278° |
| 2026-05-06 18:49 | 59.66568 | 17.92350 | 127 ft | 14 kts | 193° |
| 2026-05-06 18:50 | 59.66445 | 17.92305 | 125 ft | 33 kts | 190° |
| 2026-05-06 18:50 | 59.65959 | 17.92131 | 118 ft | 109 kts | 190° |
| 2026-05-06 18:50 | 59.64992 | 17.91772 | 264 ft | 160 kts | 190° |
| 2026-05-06 18:50 | 59.63933 | 17.91346 | 1299 ft | 151 kts | 192° |
| 2026-05-06 18:51 | 59.62890 | 17.90871 | 2022 ft | 163 kts | 194° |
| 2026-05-06 18:51 | 59.61804 | 17.89688 | 2257 ft | 198 kts | 221° |
| 2026-05-06 18:51 | 59.60916 | 17.87394 | 2784 ft | 218 kts | 236° |
| 2026-05-06 18:51 | 59.60049 | 17.84935 | 3682 ft | 219 kts | 232° |
| 2026-05-06 18:52 | 59.59134 | 17.82543 | 4451 ft | 225 kts | 232° |
| 2026-05-06 18:52 | 59.58288 | 17.79897 | 5172 ft | 231 kts | 241° |
| 2026-05-06 18:52 | 59.57533 | 17.77083 | 6067 ft | 232 kts | 243° |
| 2026-05-06 18:52 | 59.56895 | 17.74155 | 6964 ft | 232 kts | 255° |
| 2026-05-06 18:53 | 59.56713 | 17.70958 | 7653 ft | 243 kts | 270° |
| 2026-05-06 18:53 | 59.56781 | 17.67515 | 8209 ft | 258 kts | 274° |
| 2026-05-06 18:53 | 59.56851 | 17.65160 | 8732 ft | 262 kts | 273° |
| 2026-05-06 18:53 | 59.56947 | 17.61552 | 9639 ft | 264 kts | 273° |
| 2026-05-06 18:54 | 59.57035 | 17.57919 | 10438 ft | 269 kts | 272° |
| 2026-05-06 18:54 | 59.57122 | 17.54102 | 10813 ft | 289 kts | 272° |
| 2026-05-06 18:54 | 59.57417 | 17.50048 | 11116 ft | 309 kts | 284° |
| 2026-05-06 18:54 | 59.58192 | 17.45955 | 11446 ft | 327 kts | 292° |
| 2026-05-06 18:55 | 59.59125 | 17.41753 | 11978 ft | 337 kts | 292° |
| 2026-05-06 18:55 | 59.60089 | 17.37506 | 12658 ft | 342 kts | 292° |
| 2026-05-06 18:55 | 59.61076 | 17.33202 | 13360 ft | 345 kts | 292° |
| 2026-05-06 18:55 | 59.62081 | 17.28863 | 14018 ft | 349 kts | 292° |
| 2026-05-06 18:56 | 59.63101 | 17.24491 | 14643 ft | 352 kts | 292° |
| 2026-05-06 18:56 | 59.64133 | 17.20093 | 15311 ft | 354 kts | 292° |
| 2026-05-06 18:56 | 59.65087 | 17.15605 | 15975 ft | 355 kts | 288° |
| 2026-05-06 18:56 | 59.65943 | 17.11009 | 16655 ft | 357 kts | 287° |
| 2026-05-06 18:57 | 59.66795 | 17.06381 | 17319 ft | 359 kts | 287° |
| 2026-05-06 18:57 | 59.67657 | 17.01721 | 17973 ft | 361 kts | 287° |
| 2026-05-06 18:57 | 59.68487 | 16.97011 | 18576 ft | 363 kts | 284° |
| 2026-05-06 18:57 | 59.69168 | 16.92259 | 19134 ft | 364 kts | 282° |
| 2026-05-06 18:58 | 59.69844 | 16.87354 | 19712 ft | 365 kts | 282° |
| 2026-05-06 18:58 | 59.70513 | 16.82551 | 20273 ft | 367 kts | 282° |
| 2026-05-06 18:58 | 59.71202 | 16.77673 | 20836 ft | 369 kts | 282° |
| 2026-05-06 18:58 | 59.71742 | 16.72713 | 21372 ft | 368 kts | 274° |
| 2026-05-06 18:59 | 59.71815 | 16.67663 | 21899 ft | 366 kts | 263° |
| 2026-05-06 18:59 | 59.71345 | 16.62718 | 22440 ft | 366 kts | 253° |
| 2026-05-06 18:59 | 59.70700 | 16.57828 | 22981 ft | 368 kts | 255° |
| 2026-05-06 18:59 | 59.70154 | 16.52860 | 23505 ft | 369 kts | 256° |
| 2026-05-06 19:00 | 59.69439 | 16.47986 | 23950 ft | 370 kts | 249° |
| 2026-05-06 19:00 | 59.68380 | 16.43332 | 24418 ft | 371 kts | 242° |
| 2026-05-06 19:00 | 59.67121 | 16.38862 | 24877 ft | 372 kts | 240° |
| 2026-05-06 19:00 | 59.65868 | 16.34379 | 25365 ft | 373 kts | 242° |
| 2026-05-06 19:01 | 59.64797 | 16.29709 | 25849 ft | 374 kts | 248° |
| 2026-05-06 19:01 | 59.64054 | 16.24755 | 26329 ft | 378 kts | 256° |
| 2026-05-06 19:01 | 59.63731 | 16.19581 | 26847 ft | 383 kts | 264° |
| 2026-05-06 19:01 | 59.63835 | 16.14268 | 27370 ft | 390 kts | 271° |
| 2026-05-06 19:02 | 59.64252 | 16.08932 | 27928 ft | 395 kts | 275° |
| 2026-05-06 19:02 | 59.64846 | 16.03580 | 28442 ft | 400 kts | 277° |
| 2026-05-06 19:02 | 59.65513 | 15.98221 | 28973 ft | 403 kts | 277° |
| 2026-05-06 19:02 | 59.66196 | 15.92828 | 29514 ft | 406 kts | 277° |
| 2026-05-06 19:03 | 59.66870 | 15.87373 | 30027 ft | 409 kts | 276° |
| 2026-05-06 19:03 | 59.67524 | 15.81874 | 30430 ft | 413 kts | 276° |
| 2026-05-06 19:03 | 59.68157 | 15.76378 | 30808 ft | 416 kts | 276° |
| 2026-05-06 19:03 | 59.68791 | 15.70748 | 31181 ft | 420 kts | 276° |
| 2026-05-06 19:04 | 59.69423 | 15.65071 | 31555 ft | 424 kts | 276° |
| 2026-05-06 19:04 | 59.70056 | 15.59352 | 31922 ft | 427 kts | 276° |
| 2026-05-06 19:04 | 59.70693 | 15.53563 | 32285 ft | 431 kts | 276° |
| 2026-05-06 19:04 | 59.71332 | 15.47743 | 32639 ft | 434 kts | 276° |
| 2026-05-06 19:05 | 59.71975 | 15.41876 | 32999 ft | 437 kts | 276° |
| 2026-05-06 19:05 | 59.72619 | 15.35995 | 33496 ft | 436 kts | 276° |
| 2026-05-06 19:05 | 59.73262 | 15.30118 | 34028 ft | 435 kts | 276° |
| 2026-05-06 19:05 | 59.73897 | 15.24250 | 34410 ft | 436 kts | 276° |
| 2026-05-06 19:06 | 59.74529 | 15.18350 | 34753 ft | 438 kts | 276° |
| 2026-05-06 19:06 | 59.75157 | 15.12438 | 35077 ft | 440 kts | 276° |
| 2026-05-06 19:06 | 59.75788 | 15.06483 | 35406 ft | 441 kts | 277° |
| 2026-05-06 19:06 | 59.76418 | 15.00516 | 35746 ft | 443 kts | 277° |
| 2026-05-06 19:07 | 59.77050 | 14.94508 | 35929 ft | 446 kts | 277° |
| 2026-05-06 19:07 | 59.78306 | 14.82530 | 35953 ft | 447 kts | 277° |
| 2026-05-06 19:08 | 59.79560 | 14.70466 | 35733 ft | 445 kts | 277° |
| 2026-05-06 19:08 | 59.80182 | 14.64434 | 35497 ft | 446 kts | 277° |
| 2026-05-06 19:08 | 59.80805 | 14.58400 | 35266 ft | 445 kts | 276° |
| 2026-05-06 19:08 | 59.81422 | 14.52363 | 35031 ft | 444 kts | 276° |
| 2026-05-06 19:09 | 59.82032 | 14.46361 | 34791 ft | 443 kts | 276° |
| 2026-05-06 19:09 | 59.82638 | 14.40363 | 34567 ft | 442 kts | 276° |
| 2026-05-06 19:09 | 59.83240 | 14.34385 | 34337 ft | 441 kts | 276° |
| 2026-05-06 19:09 | 59.83766 | 14.29141 | 34137 ft | 439 kts | 276° |
| 2026-05-06 19:10 | 59.84359 | 14.23195 | 33899 ft | 438 kts | 276° |
| 2026-05-06 19:10 | 59.84947 | 14.17262 | 33629 ft | 437 kts | 276° |
| 2026-05-06 19:10 | 59.85532 | 14.11339 | 32952 ft | 435 kts | 276° |
| 2026-05-06 19:10 | 59.86113 | 14.05435 | 32122 ft | 434 kts | 275° |
| 2026-05-06 19:11 | 59.86690 | 13.99537 | 31274 ft | 434 kts | 275° |
| 2026-05-06 19:11 | 59.87264 | 13.93645 | 30405 ft | 434 kts | 275° |
| 2026-05-06 19:11 | 59.87834 | 13.87754 | 29427 ft | 434 kts | 275° |
| 2026-05-06 19:11 | 59.88398 | 13.81882 | 28661 ft | 429 kts | 275° |
| 2026-05-06 19:12 | 59.88955 | 13.76080 | 28004 ft | 423 kts | 275° |
| 2026-05-06 19:12 | 59.89501 | 13.70367 | 27352 ft | 417 kts | 275° |
| 2026-05-06 19:12 | 59.90030 | 13.64794 | 26721 ft | 412 kts | 276° |
| 2026-05-06 19:12 | 59.90557 | 13.59217 | 26096 ft | 407 kts | 276° |
| 2026-05-06 19:13 | 59.91076 | 13.53696 | 25463 ft | 403 kts | 276° |
| 2026-05-06 19:13 | 59.91585 | 13.48240 | 24846 ft | 399 kts | 276° |
| 2026-05-06 19:13 | 59.92089 | 13.42827 | 24222 ft | 395 kts | 276° |
| 2026-05-06 19:13 | 59.92586 | 13.37452 | 23609 ft | 392 kts | 276° |
| 2026-05-06 19:14 | 59.93078 | 13.32122 | 22935 ft | 389 kts | 277° |
| 2026-05-06 19:14 | 59.93563 | 13.26862 | 22319 ft | 384 kts | 277° |
| 2026-05-06 19:14 | 59.94039 | 13.21663 | 21693 ft | 379 kts | 277° |
| 2026-05-06 19:14 | 59.94509 | 13.16523 | 21109 ft | 375 kts | 277° |
| 2026-05-06 19:15 | 59.94998 | 13.11450 | 20725 ft | 367 kts | 279° |
| 2026-05-06 19:15 | 59.95796 | 13.06510 | 20718 ft | 384 kts | 288° |
| 2026-05-06 19:15 | 59.96986 | 13.01718 | 20546 ft | 376 kts | 294° |
| 2026-05-06 19:15 | 59.98216 | 12.97276 | 19691 ft | 358 kts | 294° |
| 2026-05-06 19:16 | 59.99425 | 12.92895 | 18808 ft | 362 kts | 294° |
| 2026-05-06 19:16 | 60.00657 | 12.88497 | 18321 ft | 362 kts | 295° |
| 2026-05-06 19:16 | 60.01896 | 12.84134 | 17747 ft | 359 kts | 295° |
| 2026-05-06 19:16 | 60.03135 | 12.79803 | 17198 ft | 357 kts | 295° |
| 2026-05-06 19:17 | 60.04366 | 12.75504 | 16645 ft | 355 kts | 295° |
| 2026-05-06 19:17 | 60.05592 | 12.71225 | 16123 ft | 354 kts | 295° |
| 2026-05-06 19:17 | 60.06802 | 12.67005 | 15607 ft | 351 kts | 295° |
| 2026-05-06 19:17 | 60.08009 | 12.62790 | 15047 ft | 347 kts | 295° |
| 2026-05-06 19:18 | 60.09201 | 12.58617 | 14503 ft | 344 kts | 295° |
| 2026-05-06 19:18 | 60.10383 | 12.54473 | 13957 ft | 340 kts | 295° |
| 2026-05-06 19:18 | 60.11553 | 12.50365 | 13379 ft | 338 kts | 296° |
| 2026-05-06 19:18 | 60.12715 | 12.46276 | 12845 ft | 337 kts | 296° |
| 2026-05-06 19:19 | 60.13873 | 12.42197 | 12295 ft | 336 kts | 296° |
| 2026-05-06 19:19 | 60.15027 | 12.38115 | 11754 ft | 335 kts | 296° |
| 2026-05-06 19:19 | 60.16181 | 12.34037 | 11581 ft | 337 kts | 296° |
| 2026-05-06 19:19 | 60.17334 | 12.29956 | 11445 ft | 335 kts | 296° |
| 2026-05-06 19:20 | 60.18485 | 12.25874 | 11312 ft | 335 kts | 296° |
| 2026-05-06 19:20 | 60.19630 | 12.21805 | 11187 ft | 335 kts | 296° |
| 2026-05-06 19:20 | 60.20775 | 12.17730 | 11060 ft | 335 kts | 296° |
| 2026-05-06 19:20 | 60.21917 | 12.13654 | 10929 ft | 334 kts | 296° |
| 2026-05-06 19:21 | 60.23057 | 12.09579 | 10789 ft | 334 kts | 296° |
| 2026-05-06 19:21 | 60.24195 | 12.05502 | 10433 ft | 333 kts | 296° |
| 2026-05-06 19:21 | 60.25328 | 12.01433 | 10100 ft | 333 kts | 297° |
| 2026-05-06 19:21 | 60.26461 | 11.97361 | 9744 ft | 333 kts | 297° |
| 2026-05-06 19:22 | 60.27592 | 11.93293 | 9370 ft | 332 kts | 297° |
| 2026-05-06 19:22 | 60.28714 | 11.89249 | 9004 ft | 330 kts | 297° |
| 2026-05-06 19:22 | 60.29832 | 11.85214 | 8653 ft | 329 kts | 297° |
| 2026-05-06 19:22 | 60.30942 | 11.81192 | 8314 ft | 327 kts | 297° |
| 2026-05-06 19:23 | 60.32044 | 11.77198 | 7966 ft | 325 kts | 297° |
| 2026-05-06 19:23 | 60.33139 | 11.73223 | 7614 ft | 324 kts | 298° |
| 2026-05-06 19:23 | 60.34229 | 11.69260 | 7265 ft | 322 kts | 298° |
| 2026-05-06 19:23 | 60.35312 | 11.65311 | 6941 ft | 320 kts | 298° |
| 2026-05-06 19:24 | 60.36389 | 11.61380 | 6605 ft | 319 kts | 298° |
| 2026-05-06 19:24 | 60.37441 | 11.57540 | 6269 ft | 299 kts | 298° |
| 2026-05-06 19:24 | 60.38415 | 11.53975 | 5954 ft | 285 kts | 298° |
| 2026-05-06 19:24 | 60.39369 | 11.50477 | 5768 ft | 279 kts | 298° |
| 2026-05-06 19:25 | 60.40261 | 11.47202 | 5602 ft | 253 kts | 298° |
| 2026-05-06 19:25 | 60.41078 | 11.44199 | 5460 ft | 234 kts | 298° |
| 2026-05-06 19:25 | 60.41759 | 11.41282 | 5303 ft | 228 kts | 287° |
| 2026-05-06 19:25 | 60.41892 | 11.38119 | 5099 ft | 227 kts | 262° |
| 2026-05-06 19:26 | 60.41554 | 11.35001 | 4852 ft | 227 kts | 255° |
| 2026-05-06 19:26 | 60.41143 | 11.31915 | 4600 ft | 227 kts | 255° |
| 2026-05-06 19:26 | 60.40753 | 11.28939 | 4434 ft | 210 kts | 256° |
| 2026-05-06 19:26 | 60.40352 | 11.26192 | 4323 ft | 206 kts | 249° |
| 2026-05-06 19:27 | 60.39409 | 11.23988 | 4264 ft | 207 kts | 220° |
| 2026-05-06 19:27 | 60.38148 | 11.22585 | 4230 ft | 209 kts | 200° |
| 2026-05-06 19:27 | 60.36772 | 11.21858 | 4108 ft | 203 kts | 194° |
| 2026-05-06 19:27 | 60.35418 | 11.21135 | 3923 ft | 195 kts | 198° |
| 2026-05-06 19:28 | 60.34150 | 11.20366 | 3668 ft | 192 kts | 198° |
| 2026-05-06 19:28 | 60.32855 | 11.19608 | 3387 ft | 190 kts | 197° |
| 2026-05-06 19:28 | 60.31602 | 11.18888 | 3128 ft | 188 kts | 198° |
| 2026-05-06 19:28 | 60.30337 | 11.18152 | 2860 ft | 186 kts | 198° |
| 2026-05-06 19:29 | 60.29120 | 11.17446 | 2604 ft | 183 kts | 198° |
| 2026-05-06 19:29 | 60.27904 | 11.16743 | 2352 ft | 179 kts | 198° |
| 2026-05-06 19:29 | 60.26743 | 11.16071 | 2116 ft | 168 kts | 198° |
| 2026-05-06 19:29 | 60.25663 | 11.15449 | 1891 ft | 155 kts | 197° |
| 2026-05-06 19:30 | 60.24661 | 11.14881 | 1674 ft | 143 kts | 198° |
| 2026-05-06 19:30 | 60.23739 | 11.14337 | 1484 ft | 134 kts | 198° |
| 2026-05-06 19:30 | 60.22851 | 11.13810 | 1306 ft | 133 kts | 198° |
| 2026-05-06 19:30 | 60.21950 | 11.13300 | 1152 ft | 136 kts | 197° |
| 2026-05-06 19:31 | 60.21039 | 11.12775 | 944 ft | 136 kts | 198° |
| 2026-05-06 19:31 | 60.20133 | 11.12259 | 752 ft | 136 kts | 197° |
| 2026-05-06 19:31 | 60.18806 | 11.11489 | 685 ft | 31 kts | 196° |
| 2026-05-06 19:32 | 60.18594 | 11.11355 | 683 ft | 33 kts | 203° |
| 2026-05-06 19:32 | 60.18454 | 11.11157 | 682 ft | 15 kts | 236° |
| 2026-05-06 19:32 | 60.18441 | 11.11018 | 687 ft | 10 kts | 279° |
| 2026-05-06 19:32 | 60.18465 | 11.10857 | 685 ft | 14 kts | 287° |
| 2026-05-06 19:33 | 60.18497 | 11.10770 | 679 ft | 6 kts | 341° |
| 2026-05-06 19:33 | 60.18546 | 11.10780 | 686 ft | 9 kts | 13° |
| 2026-05-06 19:33 | 60.18616 | 11.10817 | 688 ft | 12 kts | 16° |
| 2026-05-06 19:33 | 60.18709 | 11.10871 | 682 ft | 15 kts | 16° |
| 2026-05-06 19:34 | 60.18821 | 11.10936 | 683 ft | 18 kts | 16° |
| 2026-05-06 19:34 | 60.18954 | 11.11013 | 680 ft | 21 kts | 16° |
| 2026-05-06 19:34 | 60.19073 | 11.11082 | 683 ft | 10 kts | 16° |
| 2026-05-06 19:34 | 60.19139 | 11.11081 | 682 ft | 10 kts | 326° |
| 2026-05-06 19:35 | 60.19161 | 11.10994 | 684 ft | 12 kts | 285° |
| 2026-05-06 19:35 | 60.19208 | 11.10875 | 684 ft | 7 kts | 335° |
| 2026-05-06 19:35 | 60.19242 | 11.10846 | 684 ft | 4 kts | 338° |
| 2026-05-06 19:35 | 60.19255 | 11.10836 | 682 ft | 0 kts | 338° |